createdAt,value
2023-02-09T00:02:49.148Z,15.93
2023-02-09T00:06:51.341Z,20.52
2023-02-09T00:10:53.617Z,17.10
2023-02-09T00:14:55.749Z,19.15
2023-02-09T00:18:57.791Z,17.00
2023-02-09T00:22:59.843Z,16.08
2023-02-09T00:27:01.840Z,16.25
2023-02-09T00:31:09.100Z,17.75
2023-02-09T00:35:11.173Z,17.50
2023-02-09T00:39:13.232Z,18.30
2023-02-09T00:43:15.274Z,17.38
2023-02-09T00:47:17.277Z,16.45
2023-02-09T00:51:19.347Z,17.33
2023-02-09T00:55:21.818Z,16.88
2023-02-09T00:59:24.048Z,18.58
2023-02-09T01:03:26.079Z,17.23
2023-02-09T01:07:29.139Z,18.17
2023-02-09T01:11:31.312Z,16.73
2023-02-09T01:15:33.492Z,17.75
2023-02-09T01:19:35.962Z,16.60
2023-02-09T01:23:38.880Z,18.75
2023-02-09T01:27:42.191Z,17.02
2023-02-09T01:31:44.672Z,15.95
2023-02-09T01:35:46.723Z,19.77
2023-02-09T01:39:48.764Z,17.40
2023-02-09T01:43:56.112Z,16.45
2023-02-09T01:48:01.675Z,19.58
2023-02-09T01:52:11.114Z,20.75
2023-02-09T01:56:21.235Z,18.48
2023-02-09T02:00:24.581Z,21.35
2023-02-09T02:04:26.930Z,19.05
2023-02-09T02:08:44.064Z,19.23
2023-02-09T02:12:46.909Z,18.27
2023-02-09T02:16:57.958Z,17.35
2023-02-09T02:21:15.305Z,16.42
2023-02-09T02:25:55.249Z,19.63
2023-02-09T02:30:06.028Z,17.65
2023-02-09T02:34:20.299Z,17.80
2023-02-09T02:38:28.364Z,21.48
2023-02-09T02:42:48.606Z,18.17
2023-02-09T02:46:59.823Z,18.02
2023-02-09T02:51:13.485Z,21.17
2023-02-09T02:55:19.274Z,20.42
2023-02-09T02:59:26.940Z,18.25
2023-02-09T03:03:35.367Z,17.50
2023-02-09T03:07:37.408Z,18.52
2023-02-09T03:11:44.163Z,18.98
2023-02-09T03:20:13.983Z,21.23
2023-02-09T03:24:31.357Z,20.80
2023-02-09T03:28:36.958Z,19.17
2023-02-09T03:32:45.268Z,20.35
2023-02-09T03:36:55.044Z,19.38
2023-02-09T03:40:57.395Z,18.98
2023-02-09T03:44:59.521Z,21.60
2023-02-09T03:49:01.633Z,19.55
2023-02-09T03:53:07.587Z,17.65
2023-02-09T03:57:10.327Z,19.23
2023-02-09T04:01:12.358Z,20.13
2023-02-09T04:05:14.552Z,18.52
2023-02-09T04:09:17.026Z,20.70
2023-02-09T04:13:19.028Z,19.45
2023-02-09T04:17:21.053Z,20.88
2023-02-09T04:21:23.272Z,22.15
2023-02-09T04:25:25.300Z,18.38
2023-02-09T04:29:27.516Z,20.08
2023-02-09T04:33:29.733Z,19.67
2023-02-09T04:37:31.717Z,21.33
2023-02-09T04:41:33.780Z,18.85
2023-02-09T04:45:38.454Z,19.23
2023-02-09T04:49:42.544Z,18.38
2023-02-09T04:53:44.602Z,21.00
2023-02-09T04:58:05.155Z,20.42
2023-02-09T05:02:07.817Z,21.48
2023-02-09T05:06:09.896Z,18.58
2023-02-09T05:10:12.039Z,19.30
2023-02-09T05:14:14.075Z,19.63
2023-02-09T05:18:16.565Z,21.30
2023-02-09T05:22:18.593Z,23.58
2023-02-09T05:26:20.723Z,24.15
2023-02-09T05:30:22.955Z,21.33
2023-02-09T05:34:24.981Z,25.13
2023-02-09T05:38:27.009Z,22.60
2023-02-09T05:42:29.137Z,21.60
2023-02-09T05:46:31.169Z,24.33
2023-02-09T05:50:33.538Z,23.70
2023-02-09T05:54:41.683Z,20.48
2023-02-09T05:58:43.700Z,22.40
2023-02-09T06:02:45.822Z,22.52
2023-02-09T06:06:48.020Z,23.05
2023-02-09T06:10:50.075Z,21.45
2023-02-09T06:14:52.095Z,23.17
2023-02-09T06:18:54.101Z,21.80
2023-02-09T06:22:56.090Z,23.58
2023-02-09T06:26:58.106Z,22.38
2023-02-09T06:31:00.338Z,23.05
2023-02-09T06:35:02.493Z,22.65
2023-02-09T06:39:09.177Z,23.38
2023-02-09T06:47:13.198Z,22.50
2023-02-09T06:51:17.032Z,23.77
2023-02-09T06:55:19.344Z,24.45
2023-02-09T06:59:21.415Z,24.33
2023-02-09T07:03:23.516Z,24.00
2023-02-09T07:07:25.706Z,26.30
2023-02-09T07:11:27.837Z,40.42
2023-02-09T07:15:29.846Z,30.25
2023-02-09T07:19:32.034Z,24.38
2023-02-09T07:23:34.414Z,27.98
2023-02-09T07:27:36.454Z,25.35
2023-02-09T07:31:38.701Z,21.45
2023-02-09T07:35:40.907Z,25.65
2023-02-09T07:39:42.923Z,21.98
2023-02-09T07:43:45.531Z,23.67
2023-02-09T07:47:47.610Z,22.05
2023-02-09T07:51:49.636Z,21.75
2023-02-09T07:55:51.919Z,30.90
2023-02-09T07:59:53.939Z,25.73
2023-02-09T08:03:55.957Z,27.77
2023-02-09T08:07:58.584Z,30.05
2023-02-09T08:12:05.123Z,22.80
2023-02-09T08:16:15.734Z,23.27
2023-02-09T08:20:20.682Z,28.58
2023-02-09T08:24:22.731Z,24.35
2023-02-09T08:28:38.219Z,22.05
2023-02-09T08:32:45.093Z,22.30
2023-02-09T08:36:47.134Z,22.77
2023-02-09T08:40:49.225Z,24.27
2023-02-09T08:44:51.321Z,22.02
2023-02-09T08:48:53.365Z,21.85
2023-02-09T08:52:57.798Z,23.05
2023-02-09T08:57:01.240Z,22.23
2023-02-09T09:01:03.864Z,21.48
2023-02-09T09:05:06.388Z,24.10
2023-02-09T09:09:08.672Z,23.00
2023-02-09T09:13:10.693Z,19.98
2023-02-09T09:17:12.735Z,23.80
2023-02-09T09:21:16.887Z,21.48
2023-02-09T09:25:18.880Z,21.05
2023-02-09T09:29:20.916Z,21.02
2023-02-09T09:33:22.948Z,23.77
2023-02-09T09:37:26.267Z,19.50
2023-02-09T09:41:36.398Z,23.60
2023-02-09T09:45:39.383Z,22.88
2023-02-09T09:49:41.876Z,22.73
2023-02-09T09:53:45.687Z,23.33
2023-02-09T09:57:49.054Z,21.77
2023-02-09T10:01:53.574Z,25.88
2023-02-09T10:06:01.250Z,26.08
2023-02-09T10:10:14.143Z,23.67
2023-02-09T10:14:16.169Z,24.33
2023-02-09T10:18:21.177Z,25.65
2023-02-09T10:22:23.261Z,25.27
2023-02-09T10:26:39.287Z,59.15
2023-02-09T10:30:46.309Z,28.77
2023-02-09T10:34:52.112Z,27.73
2023-02-09T10:39:10.130Z,24.38
2023-02-09T10:43:25.791Z,25.05
2023-02-09T10:47:30.995Z,22.67
2023-02-09T10:51:34.931Z,26.35
2023-02-09T10:55:41.855Z,24.85
2023-02-09T10:59:50.966Z,25.25
2023-02-09T11:04:00.944Z,23.55
2023-02-09T11:08:12.942Z,25.73
2023-02-09T11:12:15.178Z,25.48
2023-02-09T11:16:49.704Z,25.65
2023-02-09T11:20:58.613Z,27.20
2023-02-09T11:25:19.655Z,22.95
2023-02-09T11:29:29.759Z,22.88
2023-02-09T11:34:19.824Z,28.58
2023-02-09T11:38:46.261Z,27.52
2023-02-09T11:43:02.678Z,26.65
2023-02-09T11:47:14.757Z,26.40
2023-02-09T11:51:20.887Z,26.00
2023-02-09T11:55:38.445Z,21.43
2023-02-09T11:59:45.619Z,24.83
2023-02-09T12:08:28.876Z,27.45
2023-02-09T12:12:48.862Z,23.85
2023-02-09T12:17:00.454Z,25.48
2023-02-09T12:21:05.308Z,23.92
2023-02-09T12:25:21.255Z,25.45
2023-02-09T12:29:40.694Z,25.40
2023-02-09T12:33:45.692Z,26.08
2023-02-09T12:38:21.313Z,24.00
2023-02-09T12:42:27.456Z,24.60
2023-02-09T12:46:29.564Z,24.23
2023-02-09T12:50:42.596Z,24.00
2023-02-09T12:54:49.114Z,24.88
2023-02-09T12:58:51.119Z,23.15
2023-02-09T13:02:56.564Z,22.60
2023-02-09T13:06:59.055Z,26.63
2023-02-09T13:11:21.684Z,28.58
2023-02-09T13:15:29.072Z,26.50
2023-02-09T13:19:59.971Z,24.40
2023-02-09T13:24:11.187Z,24.52
2023-02-09T13:28:19.243Z,22.58
2023-02-09T13:32:36.993Z,26.00
2023-02-09T13:36:50.092Z,23.88
2023-02-09T13:40:52.390Z,21.80
2023-02-09T13:44:58.166Z,23.48
2023-02-09T13:49:15.852Z,22.50
2023-02-09T13:53:19.941Z,23.67
2023-02-09T13:57:31.514Z,25.00
2023-02-09T14:01:36.595Z,26.13
2023-02-09T14:05:48.243Z,25.15
2023-02-09T14:09:58.096Z,27.30
2023-02-09T14:14:15.160Z,24.17
2023-02-09T14:18:46.877Z,25.08
2023-02-09T14:23:00.419Z,26.98
2023-02-09T14:27:18.555Z,25.17
2023-02-09T14:31:26.737Z,30.42
2023-02-09T14:35:40.241Z,24.92
2023-02-09T14:40:06.788Z,25.73
2023-02-09T14:44:08.833Z,28.35
2023-02-09T14:48:20.268Z,24.85
2023-02-09T14:52:28.678Z,26.05
2023-02-09T14:56:34.367Z,25.80
2023-02-09T15:00:36.409Z,25.55
2023-02-09T15:04:38.454Z,25.42
2023-02-09T15:08:41.261Z,25.63
2023-02-09T15:12:43.303Z,27.27
2023-02-09T15:16:45.359Z,29.83
2023-02-09T15:20:47.815Z,28.13
2023-02-09T15:24:54.221Z,29.02
2023-02-09T15:28:56.552Z,26.80
2023-02-09T15:32:58.920Z,29.85
2023-02-09T15:37:01.613Z,26.92
2023-02-09T15:41:22.643Z,29.08
2023-02-09T15:45:46.157Z,26.88
2023-02-09T15:49:48.277Z,27.17
2023-02-09T15:53:51.082Z,29.13
2023-02-09T15:57:54.718Z,27.67
2023-02-09T16:01:59.902Z,29.33
2023-02-09T16:06:10.589Z,27.15
2023-02-09T16:10:18.878Z,29.83
2023-02-09T16:14:22.967Z,27.23
2023-02-09T16:18:25.034Z,25.92
2023-02-09T16:22:27.039Z,27.13
2023-02-09T16:26:30.157Z,26.55
2023-02-09T16:30:37.760Z,28.83
2023-02-09T16:34:39.760Z,25.35
2023-02-09T16:38:42.081Z,25.33
2023-02-09T16:42:44.200Z,26.92
2023-02-09T16:46:49.251Z,24.13
2023-02-09T16:50:53.764Z,26.92
2023-02-09T16:54:58.670Z,28.45
2023-02-09T16:59:00.744Z,26.95
2023-02-09T17:03:04.959Z,30.23
2023-02-09T17:07:09.419Z,31.50
2023-02-09T17:11:16.997Z,30.02
2023-02-09T17:15:29.436Z,29.15
2023-02-09T17:19:46.948Z,29.67
2023-02-09T17:23:51.057Z,28.85
2023-02-09T17:27:53.220Z,27.30
2023-02-09T17:31:55.532Z,29.95
2023-02-09T17:36:24.455Z,29.83
2023-02-09T17:40:22.165Z,31.63
2023-02-09T17:44:43.733Z,32.13
2023-02-09T17:48:48.248Z,30.42
2023-02-09T17:52:51.910Z,38.08
2023-02-09T17:56:53.947Z,35.30
2023-02-09T18:00:56.682Z,35.33
2023-02-09T18:04:58.758Z,39.25
2023-02-09T18:09:02.728Z,36.42
2023-02-09T18:13:05.036Z,33.70
2023-02-09T18:17:07.276Z,31.35
2023-02-09T18:21:13.687Z,33.60
2023-02-09T18:25:32.825Z,34.00
2023-02-09T18:29:35.381Z,31.63
2023-02-09T18:33:38.477Z,31.25
2023-02-09T18:37:40.471Z,31.55
2023-02-09T18:41:43.697Z,34.28
2023-02-09T18:45:46.144Z,33.80
2023-02-09T18:49:48.307Z,29.90
2023-02-09T18:53:51.178Z,27.35
2023-02-09T18:57:53.285Z,31.88
2023-02-09T19:01:55.563Z,31.85
2023-02-09T19:05:57.672Z,29.75
2023-02-09T19:10:00.591Z,35.10
2023-02-09T19:14:21.346Z,32.50
2023-02-09T19:18:23.402Z,38.50
2023-02-09T19:22:25.730Z,31.55
2023-02-09T19:26:27.892Z,35.63
2023-02-09T19:30:29.909Z,37.25
2023-02-09T19:34:36.099Z,36.55
2023-02-09T19:38:38.191Z,30.57
2023-02-09T19:42:40.283Z,33.60
2023-02-09T19:46:43.567Z,37.22
2023-02-09T19:50:53.362Z,38.08
2023-02-09T19:54:57.582Z,39.92
2023-02-09T19:59:00.555Z,38.53
2023-02-09T20:03:02.663Z,42.05
2023-02-09T20:07:05.057Z,43.63
2023-02-09T20:11:09.194Z,45.72
2023-02-09T20:15:11.217Z,35.58
2023-02-09T20:19:13.410Z,44.65
2023-02-09T20:23:15.570Z,41.10
2023-02-09T20:27:18.984Z,37.25
2023-02-09T20:31:23.468Z,42.08
2023-02-09T20:35:25.482Z,37.40
2023-02-09T20:39:27.642Z,38.97
2023-02-09T20:43:48.430Z,36.75
2023-02-09T20:47:50.559Z,32.40
2023-02-09T20:51:52.553Z,32.13
2023-02-09T20:55:54.623Z,31.38
2023-02-09T20:59:57.654Z,33.58
2023-02-09T21:04:00.283Z,32.33
2023-02-09T21:08:04.418Z,32.00
2023-02-09T21:12:06.563Z,32.25
2023-02-09T21:16:10.804Z,33.65
2023-02-09T21:20:14.422Z,36.85
2023-02-09T21:24:16.997Z,34.33
2023-02-09T21:28:19.067Z,32.33
2023-02-09T21:32:21.173Z,33.88
2023-02-09T21:36:23.376Z,34.72
2023-02-09T21:40:25.418Z,32.47
2023-02-09T21:44:27.517Z,32.53
2023-02-09T21:48:29.539Z,38.67
2023-02-09T21:52:31.816Z,37.50
2023-02-09T21:56:33.825Z,36.85
2023-02-09T22:00:35.852Z,35.63
2023-02-09T22:04:38.979Z,37.42
2023-02-09T22:08:41.534Z,35.47
2023-02-09T22:12:44.578Z,40.85
2023-02-09T22:16:46.708Z,38.00
2023-02-09T22:20:49.280Z,37.67
2023-02-09T22:24:51.893Z,41.50
2023-02-09T22:28:53.986Z,42.35
2023-02-09T22:32:56.046Z,36.65
2023-02-09T22:36:58.064Z,38.75
2023-02-09T22:41:21.124Z,37.17
2023-02-09T22:45:23.264Z,36.25
2023-02-09T22:49:25.314Z,33.92
2023-02-09T22:53:27.446Z,30.95
2023-02-09T22:57:29.491Z,34.90
2023-02-09T23:01:31.730Z,36.00
2023-02-09T23:05:34.463Z,33.97
2023-02-09T23:09:36.536Z,33.25
2023-02-09T23:13:38.689Z,33.22
2023-02-09T23:17:40.715Z,31.38
2023-02-09T23:21:45.678Z,33.80
2023-02-09T23:25:51.676Z,33.20
2023-02-09T23:29:54.645Z,30.03
2023-02-09T23:33:56.773Z,33.83
2023-02-09T23:37:58.826Z,35.15
2023-02-09T23:42:01.066Z,35.08
2023-02-09T23:46:05.442Z,37.67
2023-02-09T23:50:07.610Z,33.25
2023-02-09T23:54:10.795Z,32.75
2023-02-09T23:58:12.805Z,34.55
